Alcalde, Kentucky
Current Conditions -  °F | °C
As of 3:35 PM on Friday 19 Dec 2014 (Local Time) from KSME Reporting Station
Clear Clear  
Wind Chill: 36°   Ceiling: Unl
Heat Index: 36°   Visibility: 10mi
Dew Point: 27°   Wind: 3mph
Humidity: 70%   Direction: 330°NNW
Pressure: 30.24"   Gusts: NA
Location:  37.0813°N, 84.4741°W
Report Text: KSME 192035Z AUTO 33003KT 10SM CLR 02/M03 A3024 RMK AO2
Loading
Personal Weather Stations






























Interactive Weather Map New forecast layout! Learn more

10-Day Weather Forecast

Advertisements
Track Severe Weather on mobile